sensor_id;sensor_type;location;lat;lon;timestamp;pressure;altitude;pressure_sealevel;temperature;humidity
69971;BME280;57301;50.328;8.542;2023-04-25T00:01:03;97788.94;;;7.58;96.27
69971;BME280;57301;50.328;8.542;2023-04-25T00:03:31;97791.66;;;7.48;96.58
69971;BME280;57301;50.328;8.542;2023-04-25T00:05:58;97796.50;;;7.53;96.49
69971;BME280;57301;50.328;8.542;2023-04-25T00:08:29;97794.56;;;7.55;95.61
69971;BME280;57301;50.328;8.542;2023-04-25T00:10:57;97799.56;;;7.58;96.65
69971;BME280;57301;50.328;8.542;2023-04-25T00:13:24;97806.13;;;7.54;96.36
69971;BME280;57301;50.328;8.542;2023-04-25T00:15:52;97796.06;;;7.58;96.21
69971;BME280;57301;50.328;8.542;2023-04-25T00:18:22;97804.31;;;7.54;95.99
69971;BME280;57301;50.328;8.542;2023-04-25T00:20:49;97805.25;;;7.45;96.53
69971;BME280;57301;50.328;8.542;2023-04-25T00:23:16;97802.66;;;7.53;95.87
69971;BME280;57301;50.328;8.542;2023-04-25T00:25:49;97804.25;;;7.46;95.69
69971;BME280;57301;50.328;8.542;2023-04-25T00:28:16;97801.75;;;7.45;94.90
69971;BME280;57301;50.328;8.542;2023-04-25T00:30:43;97794.78;;;7.44;94.95
69971;BME280;57301;50.328;8.542;2023-04-25T00:33:09;97802.59;;;7.45;94.85
69971;BME280;57301;50.328;8.542;2023-04-25T00:35:37;97802.44;;;7.47;94.90
69971;BME280;57301;50.328;8.542;2023-04-25T00:38:04;97798.94;;;7.46;94.41
69971;BME280;57301;50.328;8.542;2023-04-25T00:40:30;97802.13;;;7.50;94.44
69971;BME280;57301;50.328;8.542;2023-04-25T00:42:57;97803.41;;;7.46;94.35
69971;BME280;57301;50.328;8.542;2023-04-25T00:45:27;97807.34;;;7.42;94.39
69971;BME280;57301;50.328;8.542;2023-04-25T00:47:54;97802.34;;;7.39;94.05
69971;BME280;57301;50.328;8.542;2023-04-25T00:50:21;97802.97;;;7.33;93.99
69971;BME280;57301;50.328;8.542;2023-04-25T00:52:48;97800.59;;;7.30;93.30
69971;BME280;57301;50.328;8.542;2023-04-25T00:55:15;97805.16;;;7.19;93.72
69971;BME280;57301;50.328;8.542;2023-04-25T00:57:42;97796.03;;;7.22;93.47
69971;BME280;57301;50.328;8.542;2023-04-25T01:00:09;97791.50;;;7.14;93.24
69971;BME280;57301;50.328;8.542;2023-04-25T01:02:37;97791.41;;;7.06;93.66
69971;BME280;57301;50.328;8.542;2023-04-25T01:05:04;97797.69;;;7.05;92.31
69971;BME280;57301;50.328;8.542;2023-04-25T01:07:31;97792.69;;;7.02;92.38
69971;BME280;57301;50.328;8.542;2023-04-25T01:09:57;97798.00;;;7.02;91.89
69971;BME280;57301;50.328;8.542;2023-04-25T01:12:24;97792.44;;;6.95;91.76
69971;BME280;57301;50.328;8.542;2023-04-25T01:14:51;97795.94;;;6.96;91.88
69971;BME280;57301;50.328;8.542;2023-04-25T01:17:18;97787.03;;;6.87;91.69
69971;BME280;57301;50.328;8.542;2023-04-25T01:19:44;97785.97;;;6.80;91.05
69971;BME280;57301;50.328;8.542;2023-04-25T01:22:14;97788.91;;;6.77;90.06
69971;BME280;57301;50.328;8.542;2023-04-25T01:24:41;97790.59;;;6.78;89.32
69971;BME280;57301;50.328;8.542;2023-04-25T01:27:08;97786.78;;;6.81;89.13
69971;BME280;57301;50.328;8.542;2023-04-25T01:29:35;97784.16;;;6.81;88.84
69971;BME280;57301;50.328;8.542;2023-04-25T01:32:02;97782.78;;;6.77;89.42
69971;BME280;57301;50.328;8.542;2023-04-25T01:34:29;97791.44;;;6.69;88.93
69971;BME280;57301;50.328;8.542;2023-04-25T01:36:56;97783.19;;;6.82;89.57
69971;BME280;57301;50.328;8.542;2023-04-25T01:39:23;97785.44;;;6.77;89.42
69971;BME280;57301;50.328;8.542;2023-04-25T01:41:50;97776.66;;;6.76;89.20
69971;BME280;57301;50.328;8.542;2023-04-25T01:44:16;97781.81;;;6.78;88.98
69971;BME280;57301;50.328;8.542;2023-04-25T01:46:43;97778.41;;;6.58;90.16
69971;BME280;57301;50.328;8.542;2023-04-25T01:49:10;97775.41;;;6.43;90.65
69971;BME280;57301;50.328;8.542;2023-04-25T01:51:37;97775.41;;;6.43;91.20
69971;BME280;57301;50.328;8.542;2023-04-25T01:54:04;97775.53;;;6.51;91.56
69971;BME280;57301;50.328;8.542;2023-04-25T01:56:37;97780.81;;;6.51;91.23
69971;BME280;57301;50.328;8.542;2023-04-25T01:59:05;97782.81;;;6.39;91.63
69971;BME280;57301;50.328;8.542;2023-04-25T02:01:32;97786.00;;;6.43;91.46
69971;BME280;57301;50.328;8.542;2023-04-25T02:03:59;97783.25;;;6.35;91.46
69971;BME280;57301;50.328;8.542;2023-04-25T02:06:26;97785.59;;;6.38;92.13
69971;BME280;57301;50.328;8.542;2023-04-25T02:08:52;97782.56;;;6.33;92.14
69971;BME280;57301;50.328;8.542;2023-04-25T02:11:19;97784.75;;;6.37;91.71
69971;BME280;57301;50.328;8.542;2023-04-25T02:13:45;97780.59;;;6.35;91.79
69971;BME280;57301;50.328;8.542;2023-04-25T02:16:12;97786.47;;;6.29;92.42
69971;BME280;57301;50.328;8.542;2023-04-25T02:18:39;97791.34;;;6.24;92.95
69971;BME280;57301;50.328;8.542;2023-04-25T02:21:06;97786.88;;;6.24;92.65
69971;BME280;57301;50.328;8.542;2023-04-25T02:23:32;97792.03;;;6.26;92.26
69971;BME280;57301;50.328;8.542;2023-04-25T02:25:59;97786.09;;;6.14;92.51
69971;BME280;57301;50.328;8.542;2023-04-25T02:28:25;97790.94;;;6.18;93.26
69971;BME280;57301;50.328;8.542;2023-04-25T02:30:52;97790.00;;;6.10;93.15
69971;BME280;57301;50.328;8.542;2023-04-25T02:33:19;97798.22;;;6.16;93.98
69971;BME280;57301;50.328;8.542;2023-04-25T02:35:47;97795.72;;;6.05;93.36
69971;BME280;57301;50.328;8.542;2023-04-25T02:38:13;97792.53;;;6.02;92.46
69971;BME280;57301;50.328;8.542;2023-04-25T02:40:40;97786.69;;;5.98;92.39
69971;BME280;57301;50.328;8.542;2023-04-25T02:43:07;97780.72;;;5.96;91.28
69971;BME280;57301;50.328;8.542;2023-04-25T02:45:33;97794.47;;;5.90;91.87
69971;BME280;57301;50.328;8.542;2023-04-25T02:48:02;97792.41;;;5.74;91.31
69971;BME280;57301;50.328;8.542;2023-04-25T02:50:29;97792.13;;;5.77;89.97
69971;BME280;57301;50.328;8.542;2023-04-25T02:52:55;97787.66;;;5.68;89.61
69971;BME280;57301;50.328;8.542;2023-04-25T02:55:22;97795.91;;;5.65;89.25
69971;BME280;57301;50.328;8.542;2023-04-25T02:57:50;97791.72;;;5.53;90.38
69971;BME280;57301;50.328;8.542;2023-04-25T03:00:16;97790.47;;;5.47;90.21
69971;BME280;57301;50.328;8.542;2023-04-25T03:02:43;97793.53;;;5.43;89.70
69971;BME280;57301;50.328;8.542;2023-04-25T03:05:09;97797.25;;;5.40;90.19
69971;BME280;57301;50.328;8.542;2023-04-25T03:07:36;97792.53;;;5.24;90.59
69971;BME280;57301;50.328;8.542;2023-04-25T03:10:02;97795.03;;;5.26;91.46
69971;BME280;57301;50.328;8.542;2023-04-25T03:12:29;97805.19;;;5.21;90.87
69971;BME280;57301;50.328;8.542;2023-04-25T03:14:55;97802.25;;;5.14;91.24
69971;BME280;57301;50.328;8.542;2023-04-25T03:17:22;97803.91;;;5.05;91.53
69971;BME280;57301;50.328;8.542;2023-04-25T03:19:48;97795.56;;;5.00;92.04
69971;BME280;57301;50.328;8.542;2023-04-25T03:22:15;97800.41;;;4.95;92.51
69971;BME280;57301;50.328;8.542;2023-04-25T03:24:41;97798.75;;;4.94;92.45
69971;BME280;57301;50.328;8.542;2023-04-25T03:27:08;97793.56;;;4.83;92.30
69971;BME280;57301;50.328;8.542;2023-04-25T03:29:35;97801.63;;;4.81;92.70
69971;BME280;57301;50.328;8.542;2023-04-25T03:32:01;97801.34;;;4.75;93.00
69971;BME280;57301;50.328;8.542;2023-04-25T03:34:28;97805.72;;;4.65;93.13
69971;BME280;57301;50.328;8.542;2023-04-25T03:36:55;97809.63;;;4.61;93.34
69971;BME280;57301;50.328;8.542;2023-04-25T03:39:21;97804.59;;;4.57;94.36
69971;BME280;57301;50.328;8.542;2023-04-25T03:41:48;97812.91;;;4.53;94.17
69971;BME280;57301;50.328;8.542;2023-04-25T03:44:14;97817.06;;;4.46;94.16
69971;BME280;57301;50.328;8.542;2023-04-25T03:46:41;97815.38;;;4.45;94.69
69971;BME280;57301;50.328;8.542;2023-04-25T03:49:07;97816.22;;;4.45;94.60
69971;BME280;57301;50.328;8.542;2023-04-25T03:51:34;97822.03;;;4.39;95.49
69971;BME280;57301;50.328;8.542;2023-04-25T03:54:00;97823.38;;;4.34;94.88
69971;BME280;57301;50.328;8.542;2023-04-25T03:56:27;97823.53;;;4.32;94.89
69971;BME280;57301;50.328;8.542;2023-04-25T03:58:53;97829.78;;;4.31;95.07
69971;BME280;57301;50.328;8.542;2023-04-25T04:01:20;97820.50;;;4.16;95.30
69971;BME280;57301;50.328;8.542;2023-04-25T04:03:46;97834.75;;;4.24;94.55
69971;BME280;57301;50.328;8.542;2023-04-25T04:06:13;97832.09;;;4.24;94.60
69971;BME280;57301;50.328;8.542;2023-04-25T04:08:40;97830.38;;;4.14;95.55
69971;BME280;57301;50.328;8.542;2023-04-25T04:11:06;97830.22;;;4.15;94.86
69971;BME280;57301;50.328;8.542;2023-04-25T04:13:33;97836.03;;;4.09;94.84
69971;BME280;57301;50.328;8.542;2023-04-25T04:15:59;97845.75;;;4.09;95.21
69971;BME280;57301;50.328;8.542;2023-04-25T04:18:26;97847.16;;;3.92;95.59
69971;BME280;57301;50.328;8.542;2023-04-25T04:20:52;97847.38;;;4.00;94.92
69971;BME280;57301;50.328;8.542;2023-04-25T04:23:19;97845.81;;;3.97;95.69
69971;BME280;57301;50.328;8.542;2023-04-25T04:25:46;97850.00;;;4.00;94.69
69971;BME280;57301;50.328;8.542;2023-04-25T04:28:13;97851.47;;;3.93;95.59
69971;BME280;57301;50.328;8.542;2023-04-25T04:30:39;97855.53;;;3.97;95.94
69971;BME280;57301;50.328;8.542;2023-04-25T04:33:08;97856.50;;;3.96;95.30
69971;BME280;57301;50.328;8.542;2023-04-25T04:35:34;97854.81;;;3.95;94.81
69971;BME280;57301;50.328;8.542;2023-04-25T04:38:01;97858.34;;;4.05;94.07
69971;BME280;57301;50.328;8.542;2023-04-25T04:40:27;97863.03;;;4.22;94.09
69971;BME280;57301;50.328;8.542;2023-04-25T04:42:54;97857.97;;;4.30;93.10
69971;BME280;57301;50.328;8.542;2023-04-25T04:45:23;97858.53;;;4.34;92.20
69971;BME280;57301;50.328;8.542;2023-04-25T04:47:50;97862.69;;;4.57;91.22
69971;BME280;57301;50.328;8.542;2023-04-25T04:50:16;97860.41;;;4.43;91.40
69971;BME280;57301;50.328;8.542;2023-04-25T04:52:43;97865.63;;;4.34;91.96
69971;BME280;57301;50.328;8.542;2023-04-25T04:55:09;97871.50;;;4.37;90.93
69971;BME280;57301;50.328;8.542;2023-04-25T04:57:36;97864.25;;;4.39;91.54
69971;BME280;57301;50.328;8.542;2023-04-25T05:00:03;97874.38;;;4.55;91.03
69971;BME280;57301;50.328;8.542;2023-04-25T05:02:38;97881.09;;;4.69;89.82
69971;BME280;57301;50.328;8.542;2023-04-25T05:05:05;97885.78;;;4.96;88.13
69971;BME280;57301;50.328;8.542;2023-04-25T05:07:32;97894.84;;;5.03;87.42
69971;BME280;57301;50.328;8.542;2023-04-25T05:09:58;97893.22;;;5.21;86.91
69971;BME280;57301;50.328;8.542;2023-04-25T05:12:25;97892.97;;;5.34;85.66
69971;BME280;57301;50.328;8.542;2023-04-25T05:14:51;97890.69;;;5.70;84.10
69971;BME280;57301;50.328;8.542;2023-04-25T05:17:18;97891.13;;;5.84;84.53
69971;BME280;57301;50.328;8.542;2023-04-25T05:19:44;97895.13;;;6.46;84.71
69971;BME280;57301;50.328;8.542;2023-04-25T05:22:11;97892.09;;;7.43;79.81
69971;BME280;57301;50.328;8.542;2023-04-25T05:24:37;97883.09;;;7.90;76.83
69971;BME280;57301;50.328;8.542;2023-04-25T05:27:04;97886.00;;;8.84;73.25
69971;BME280;57301;50.328;8.542;2023-04-25T05:29:32;97878.22;;;10.16;67.26
69971;BME280;57301;50.328;8.542;2023-04-25T05:31:58;97875.69;;;10.88;67.92
69971;BME280;57301;50.328;8.542;2023-04-25T05:34:25;97876.22;;;10.75;64.89
69971;BME280;57301;50.328;8.542;2023-04-25T05:36:52;97879.94;;;10.25;67.10
69971;BME280;57301;50.328;8.542;2023-04-25T05:39:18;97881.19;;;10.78;66.47
69971;BME280;57301;50.328;8.542;2023-04-25T05:41:45;97878.00;;;11.38;62.22
69971;BME280;57301;50.328;8.542;2023-04-25T05:44:11;97887.72;;;11.31;62.60
69971;BME280;57301;50.328;8.542;2023-04-25T05:46:38;97891.16;;;11.00;61.56
69971;BME280;57301;50.328;8.542;2023-04-25T05:49:04;97893.38;;;11.67;62.74
69971;BME280;57301;50.328;8.542;2023-04-25T05:51:31;97898.66;;;12.06;61.10
69971;BME280;57301;50.328;8.542;2023-04-25T05:53:58;97894.41;;;11.97;59.88
69971;BME280;57301;50.328;8.542;2023-04-25T05:56:24;97893.69;;;12.03;58.95
69971;BME280;57301;50.328;8.542;2023-04-25T05:58:51;97898.44;;;11.54;65.04
69971;BME280;57301;50.328;8.542;2023-04-25T06:01:17;97894.56;;;12.19;57.02
69971;BME280;57301;50.328;8.542;2023-04-25T06:03:44;97901.22;;;12.23;58.14
69971;BME280;57301;50.328;8.542;2023-04-25T06:06:11;97901.81;;;12.10;56.68
69971;BME280;57301;50.328;8.542;2023-04-25T06:08:38;97891.41;;;12.38;60.68
69971;BME280;57301;50.328;8.542;2023-04-25T06:11:04;97897.91;;;11.98;57.94
69971;BME280;57301;50.328;8.542;2023-04-25T06:13:31;97904.72;;;12.00;59.11
69971;BME280;57301;50.328;8.542;2023-04-25T06:15:57;97897.34;;;12.48;57.91
69971;BME280;57301;50.328;8.542;2023-04-25T06:18:24;97890.88;;;12.43;54.65
69971;BME280;57301;50.328;8.542;2023-04-25T06:20:50;97894.25;;;11.91;56.52
69971;BME280;57301;50.328;8.542;2023-04-25T06:23:17;97901.81;;;12.71;55.71
69971;BME280;57301;50.328;8.542;2023-04-25T06:25:44;97896.09;;;12.74;54.59
69971;BME280;57301;50.328;8.542;2023-04-25T06:28:10;97895.94;;;12.90;55.51
69971;BME280;57301;50.328;8.542;2023-04-25T06:30:37;97895.78;;;13.36;56.65
69971;BME280;57301;50.328;8.542;2023-04-25T06:33:03;97899.03;;;14.04;51.89
69971;BME280;57301;50.328;8.542;2023-04-25T06:35:30;97889.81;;;14.06;52.13
69971;BME280;57301;50.328;8.542;2023-04-25T06:37:57;97902.31;;;13.18;53.31
69971;BME280;57301;50.328;8.542;2023-04-25T06:40:23;97894.28;;;12.89;53.25
69971;BME280;57301;50.328;8.542;2023-04-25T06:42:50;97902.47;;;12.12;55.29
69971;BME280;57301;50.328;8.542;2023-04-25T06:45:16;97904.94;;;12.59;55.56
69971;BME280;57301;50.328;8.542;2023-04-25T06:47:43;97908.31;;;12.53;57.61
69971;BME280;57301;50.328;8.542;2023-04-25T06:50:10;97906.19;;;13.01;55.64
69971;BME280;57301;50.328;8.542;2023-04-25T06:52:37;97904.97;;;13.18;54.97
69971;BME280;57301;50.328;8.542;2023-04-25T06:55:03;97918.22;;;12.68;56.99
69971;BME280;57301;50.328;8.542;2023-04-25T06:57:31;97914.00;;;11.81;57.07
69971;BME280;57301;50.328;8.542;2023-04-25T06:59:58;97919.25;;;11.67;58.53
69971;BME280;57301;50.328;8.542;2023-04-25T07:02:27;97928.00;;;11.92;59.55
69971;BME280;57301;50.328;8.542;2023-04-25T07:04:54;97931.31;;;11.54;58.35
69971;BME280;57301;50.328;8.542;2023-04-25T07:07:22;97924.34;;;10.73;60.75
69971;BME280;57301;50.328;8.542;2023-04-25T07:09:49;97939.53;;;10.48;62.07
69971;BME280;57301;50.328;8.542;2023-04-25T07:12:15;97941.28;;;9.99;64.56
69971;BME280;57301;50.328;8.542;2023-04-25T07:14:42;97944.91;;;9.82;64.27
69971;BME280;57301;50.328;8.542;2023-04-25T07:17:08;97954.09;;;9.45;67.01
69971;BME280;57301;50.328;8.542;2023-04-25T07:19:35;97953.34;;;9.27;67.13
69971;BME280;57301;50.328;8.542;2023-04-25T07:22:03;97965.97;;;8.91;68.25
69971;BME280;57301;50.328;8.542;2023-04-25T07:24:29;97959.66;;;8.92;68.94
69971;BME280;57301;50.328;8.542;2023-04-25T07:26:55;97963.84;;;8.76;68.71
69971;BME280;57301;50.328;8.542;2023-04-25T07:29:22;97965.69;;;9.02;68.31
69971;BME280;57301;50.328;8.542;2023-04-25T07:31:49;97965.25;;;9.14;70.05
69971;BME280;57301;50.328;8.542;2023-04-25T07:34:16;97967.47;;;9.19;68.19
69971;BME280;57301;50.328;8.542;2023-04-25T07:36:43;97971.13;;;8.92;68.57
69971;BME280;57301;50.328;8.542;2023-04-25T07:39:10;97971.97;;;8.93;68.66
69971;BME280;57301;50.328;8.542;2023-04-25T07:41:37;97973.44;;;8.69;69.21
69971;BME280;57301;50.328;8.542;2023-04-25T07:44:03;97972.25;;;8.64;69.29
69971;BME280;57301;50.328;8.542;2023-04-25T07:46:30;97973.44;;;8.69;70.08
69971;BME280;57301;50.328;8.542;2023-04-25T07:48:57;97979.22;;;8.65;69.64
69971;BME280;57301;50.328;8.542;2023-04-25T07:51:23;97984.88;;;8.44;70.30
69971;BME280;57301;50.328;8.542;2023-04-25T07:53:50;97989.81;;;8.39;70.16
69971;BME280;57301;50.328;8.542;2023-04-25T07:56:16;97986.72;;;8.33;70.07
69971;BME280;57301;50.328;8.542;2023-04-25T07:58:43;97987.69;;;8.42;68.44
69971;BME280;57301;50.328;8.542;2023-04-25T08:01:09;97993.78;;;8.96;68.46
69971;BME280;57301;50.328;8.542;2023-04-25T08:03:36;97994.63;;;8.79;69.91
69971;BME280;57301;50.328;8.542;2023-04-25T08:06:03;97989.91;;;9.17;67.63
69971;BME280;57301;50.328;8.542;2023-04-25T08:08:33;97996.09;;;9.25;68.36
69971;BME280;57301;50.328;8.542;2023-04-25T08:11:00;97997.22;;;9.49;67.98
69971;BME280;57301;50.328;8.542;2023-04-25T08:13:27;98006.06;;;9.23;66.12
69971;BME280;57301;50.328;8.542;2023-04-25T08:15:53;97997.66;;;9.36;66.81
69971;BME280;57301;50.328;8.542;2023-04-25T08:18:20;97989.91;;;9.51;64.61
69971;BME280;57301;50.328;8.542;2023-04-25T08:20:46;97993.84;;;9.81;62.96
69971;BME280;57301;50.328;8.542;2023-04-25T08:23:13;97990.88;;;10.59;62.74
69971;BME280;57301;50.328;8.542;2023-04-25T08:25:39;97992.59;;;11.40;61.67
69971;BME280;57301;50.328;8.542;2023-04-25T08:28:06;97999.50;;;11.10;57.95
69971;BME280;57301;50.328;8.542;2023-04-25T08:30:32;98005.88;;;10.84;60.82
69971;BME280;57301;50.328;8.542;2023-04-25T08:32:59;98008.22;;;10.87;60.99
69971;BME280;57301;50.328;8.542;2023-04-25T08:35:26;98009.53;;;11.08;61.22
69971;BME280;57301;50.328;8.542;2023-04-25T08:37:52;98010.03;;;10.79;61.09
69971;BME280;57301;50.328;8.542;2023-04-25T08:40:22;98018.88;;;10.63;60.98
69971;BME280;57301;50.328;8.542;2023-04-25T08:42:53;98021.44;;;10.14;62.20
69971;BME280;57301;50.328;8.542;2023-04-25T08:45:20;98025.38;;;10.44;61.45
69971;BME280;57301;50.328;8.542;2023-04-25T08:47:47;98032.88;;;10.57;61.96
69971;BME280;57301;50.328;8.542;2023-04-25T08:50:16;98026.22;;;10.93;59.75
69971;BME280;57301;50.328;8.542;2023-04-25T08:52:44;98033.44;;;11.56;58.28
69971;BME280;57301;50.328;8.542;2023-04-25T08:55:13;98038.38;;;12.23;54.92
69971;BME280;57301;50.328;8.542;2023-04-25T08:57:43;98043.41;;;11.79;56.57
69971;BME280;57301;50.328;8.542;2023-04-25T09:00:11;98042.34;;;11.96;54.91
69971;BME280;57301;50.328;8.542;2023-04-25T09:02:39;98046.53;;;12.84;58.53
69971;BME280;57301;50.328;8.542;2023-04-25T09:05:06;98047.31;;;12.07;55.92
69971;BME280;57301;50.328;8.542;2023-04-25T09:07:36;98046.16;;;12.33;54.48
69971;BME280;57301;50.328;8.542;2023-04-25T09:10:02;98050.50;;;12.65;51.03
69971;BME280;57301;50.328;8.542;2023-04-25T09:12:29;98052.03;;;13.05;50.66
69971;BME280;57301;50.328;8.542;2023-04-25T09:15:10;98058.06;;;13.45;50.81
69971;BME280;57301;50.328;8.542;2023-04-25T09:17:37;98051.19;;;12.82;49.95
69971;BME280;57301;50.328;8.542;2023-04-25T09:20:11;98061.22;;;12.57;55.05
69971;BME280;57301;50.328;8.542;2023-04-25T09:22:39;98066.59;;;12.26;51.44
69971;BME280;57301;50.328;8.542;2023-04-25T09:25:09;98062.88;;;11.96;51.27
69971;BME280;57301;50.328;8.542;2023-04-25T09:27:49;98067.81;;;11.60;53.06
69971;BME280;57301;50.328;8.542;2023-04-25T09:30:16;98076.00;;;11.66;53.37
69971;BME280;57301;50.328;8.542;2023-04-25T09:32:43;98075.78;;;11.76;52.63
69971;BME280;57301;50.328;8.542;2023-04-25T09:35:23;98074.94;;;11.92;54.75
69971;BME280;57301;50.328;8.542;2023-04-25T09:37:51;98079.91;;;11.15;55.11
69971;BME280;57301;50.328;8.542;2023-04-25T09:40:18;98093.53;;;10.71;56.21
69971;BME280;57301;50.328;8.542;2023-04-25T09:42:44;98104.69;;;10.58;60.20
69971;BME280;57301;50.328;8.542;2023-04-25T09:45:12;98114.16;;;9.76;62.78
69971;BME280;57301;50.328;8.542;2023-04-25T09:47:41;98120.50;;;9.31;64.53
69971;BME280;57301;50.328;8.542;2023-04-25T09:50:17;98126.94;;;8.67;66.48
69971;BME280;57301;50.328;8.542;2023-04-25T09:52:45;98130.94;;;8.71;68.03
69971;BME280;57301;50.328;8.542;2023-04-25T09:55:11;98133.63;;;8.53;67.68
69971;BME280;57301;50.328;8.542;2023-04-25T09:57:38;98127.63;;;8.87;66.81
69971;BME280;57301;50.328;8.542;2023-04-25T10:00:07;98136.09;;;9.26;66.92
69971;BME280;57301;50.328;8.542;2023-04-25T10:02:41;98139.56;;;9.45;65.48
69971;BME280;57301;50.328;8.542;2023-04-25T10:05:10;98140.06;;;9.40;65.48
69971;BME280;57301;50.328;8.542;2023-04-25T10:07:37;98139.41;;;8.84;64.86
69971;BME280;57301;50.328;8.542;2023-04-25T10:10:05;98136.88;;;9.01;64.24
69971;BME280;57301;50.328;8.542;2023-04-25T10:12:32;98138.66;;;9.54;65.37
69971;BME280;57301;50.328;8.542;2023-04-25T10:15:00;98137.34;;;9.84;64.38
69971;BME280;57301;50.328;8.542;2023-04-25T10:17:27;98139.94;;;10.02;63.74
69971;BME280;57301;50.328;8.542;2023-04-25T10:19:55;98139.16;;;10.52;61.04
69971;BME280;57301;50.328;8.542;2023-04-25T10:22:41;98139.53;;;10.65;58.11
69971;BME280;57301;50.328;8.542;2023-04-25T10:25:08;98134.09;;;11.40;57.08
69971;BME280;57301;50.328;8.542;2023-04-25T10:27:35;98126.75;;;11.34;53.30
69971;BME280;57301;50.328;8.542;2023-04-25T10:30:23;98131.06;;;11.67;52.77
69971;BME280;57301;50.328;8.542;2023-04-25T10:32:50;98126.66;;;12.07;56.45
69971;BME280;57301;50.328;8.542;2023-04-25T10:35:19;98120.25;;;12.24;51.91
69971;BME280;57301;50.328;8.542;2023-04-25T10:38:03;98120.03;;;11.87;52.98
69971;BME280;57301;50.328;8.542;2023-04-25T10:40:33;98128.25;;;11.52;51.52
69971;BME280;57301;50.328;8.542;2023-04-25T10:46:01;98135.25;;;10.96;52.24
69971;BME280;57301;50.328;8.542;2023-04-25T10:48:29;98141.25;;;10.98;52.07
69971;BME280;57301;50.328;8.542;2023-04-25T10:51:09;98144.09;;;10.97;52.95
69971;BME280;57301;50.328;8.542;2023-04-25T10:53:35;98153.16;;;10.62;51.73
69971;BME280;57301;50.328;8.542;2023-04-25T10:56:17;98145.88;;;10.64;51.89
69971;BME280;57301;50.328;8.542;2023-04-25T10:58:45;98143.22;;;10.72;49.46
69971;BME280;57301;50.328;8.542;2023-04-25T11:01:14;98146.25;;;10.93;48.38
69971;BME280;57301;50.328;8.542;2023-04-25T11:03:42;98146.94;;;11.28;49.05
69971;BME280;57301;50.328;8.542;2023-04-25T11:09:00;98133.59;;;11.85;46.90
69971;BME280;57301;50.328;8.542;2023-04-25T11:11:28;98146.47;;;11.49;47.90
69971;BME280;57301;50.328;8.542;2023-04-25T11:13:55;98135.63;;;11.42;48.17
69971;BME280;57301;50.328;8.542;2023-04-25T11:16:24;98143.28;;;11.37;47.36
69971;BME280;57301;50.328;8.542;2023-04-25T11:19:11;98133.13;;;12.52;48.59
69971;BME280;57301;50.328;8.542;2023-04-25T11:21:38;98135.16;;;12.50;47.74
69971;BME280;57301;50.328;8.542;2023-04-25T11:24:04;98131.72;;;12.33;47.25
69971;BME280;57301;50.328;8.542;2023-04-25T11:26:31;98129.88;;;12.33;47.28
69971;BME280;57301;50.328;8.542;2023-04-25T11:28:58;98126.31;;;12.49;46.90
69971;BME280;57301;50.328;8.542;2023-04-25T11:31:26;98138.97;;;12.24;46.75
69971;BME280;57301;50.328;8.542;2023-04-25T11:33:54;98142.56;;;11.92;47.45
69971;BME280;57301;50.328;8.542;2023-04-25T11:36:23;98154.28;;;11.58;47.47
69971;BME280;57301;50.328;8.542;2023-04-25T11:38:51;98161.75;;;10.98;50.65
69971;BME280;57301;50.328;8.542;2023-04-25T11:41:18;98165.03;;;10.67;50.56
69971;BME280;57301;50.328;8.542;2023-04-25T11:43:45;98163.72;;;10.29;52.25
69971;BME280;57301;50.328;8.542;2023-04-25T11:46:12;98159.59;;;10.35;51.47
69971;BME280;57301;50.328;8.542;2023-04-25T11:48:39;98171.19;;;10.00;51.98
69971;BME280;57301;50.328;8.542;2023-04-25T11:51:06;98178.69;;;9.70;53.59
69971;BME280;57301;50.328;8.542;2023-04-25T11:53:33;98181.28;;;9.62;54.28
69971;BME280;57301;50.328;8.542;2023-04-25T11:56:00;98191.97;;;9.44;54.09
69971;BME280;57301;50.328;8.542;2023-04-25T11:58:27;98191.91;;;9.36;54.74
69971;BME280;57301;50.328;8.542;2023-04-25T12:00:53;98192.22;;;9.15;56.60
69971;BME280;57301;50.328;8.542;2023-04-25T12:03:20;98198.75;;;9.03;56.27
69971;BME280;57301;50.328;8.542;2023-04-25T12:05:50;98200.19;;;8.97;55.53
69971;BME280;57301;50.328;8.542;2023-04-25T12:08:17;98195.25;;;9.20;57.55
69971;BME280;57301;50.328;8.542;2023-04-25T12:10:45;98190.13;;;9.45;55.36
69971;BME280;57301;50.328;8.542;2023-04-25T12:13:23;98190.75;;;10.08;53.77
69971;BME280;57301;50.328;8.542;2023-04-25T12:15:51;98191.50;;;10.61;52.04
69971;BME280;57301;50.328;8.542;2023-04-25T12:18:22;98180.47;;;11.06;49.72
69971;BME280;57301;50.328;8.542;2023-04-25T12:20:49;98184.44;;;11.02;50.19
69971;BME280;57301;50.328;8.542;2023-04-25T12:23:16;98178.31;;;11.75;49.40
69971;BME280;57301;50.328;8.542;2023-04-25T12:25:43;98170.03;;;12.96;47.18
69971;BME280;57301;50.328;8.542;2023-04-25T12:30:58;98163.81;;;14.02;45.07
69971;BME280;57301;50.328;8.542;2023-04-25T12:33:27;98172.31;;;14.79;42.59
69971;BME280;57301;50.328;8.542;2023-04-25T12:35:55;98168.34;;;13.49;43.68
69971;BME280;57301;50.328;8.542;2023-04-25T12:38:30;98174.00;;;12.77;45.03
69971;BME280;57301;50.328;8.542;2023-04-25T12:40:57;98173.25;;;12.60;43.78
69971;BME280;57301;50.328;8.542;2023-04-25T12:43:24;98181.25;;;12.13;46.26
69971;BME280;57301;50.328;8.542;2023-04-25T12:45:55;98187.50;;;11.40;46.32
69971;BME280;57301;50.328;8.542;2023-04-25T12:48:22;98189.34;;;11.31;47.73
69971;BME280;57301;50.328;8.542;2023-04-25T12:50:49;98188.81;;;11.19;47.66
69971;BME280;57301;50.328;8.542;2023-04-25T12:53:18;98198.50;;;11.53;47.96
69971;BME280;57301;50.328;8.542;2023-04-25T12:55:45;98191.38;;;15.20;41.61
69971;BME280;57301;50.328;8.542;2023-04-25T12:58:14;98191.16;;;13.22;43.20
69971;BME280;57301;50.328;8.542;2023-04-25T13:00:40;98204.59;;;12.35;45.59
69971;BME280;57301;50.328;8.542;2023-04-25T13:03:08;98194.00;;;11.94;46.95
69971;BME280;57301;50.328;8.542;2023-04-25T13:05:36;98200.81;;;11.15;47.15
69971;BME280;57301;50.328;8.542;2023-04-25T13:08:03;98210.81;;;11.05;50.96
69971;BME280;57301;50.328;8.542;2023-04-25T13:10:30;98202.66;;;11.15;48.46
69971;BME280;57301;50.328;8.542;2023-04-25T13:12:57;98206.16;;;11.15;49.73
69971;BME280;57301;50.328;8.542;2023-04-25T13:15:24;98209.97;;;11.04;50.49
69971;BME280;57301;50.328;8.542;2023-04-25T13:17:51;98205.69;;;11.36;47.32